createdAt,value
2018-10-11T00:00:38.313Z,17.00
2018-10-11T00:03:08.160Z,17.10
2018-10-11T00:05:38.117Z,17.10
2018-10-11T00:08:07.436Z,17.10
2018-10-11T00:10:37.061Z,17.00
2018-10-11T00:13:06.829Z,17.00
2018-10-11T00:15:36.622Z,17.00
2018-10-11T00:18:06.087Z,17.00
2018-10-11T00:20:35.619Z,17.00
2018-10-11T00:23:05.781Z,17.10
2018-10-11T00:25:35.364Z,17.00
2018-10-11T00:28:04.776Z,16.90
2018-10-11T00:30:34.170Z,17.00
2018-10-11T00:33:03.581Z,16.90
2018-10-11T00:35:34.104Z,16.90
2018-10-11T00:38:04.419Z,16.90
2018-10-11T00:40:34.588Z,16.80
2018-10-11T00:43:03.840Z,16.80
2018-10-11T00:45:32.878Z,16.70
2018-10-11T00:48:01.893Z,16.60
2018-10-11T00:50:30.814Z,16.60
2018-10-11T00:52:59.474Z,16.60
2018-10-11T00:55:28.281Z,16.50
2018-10-11T00:57:57.469Z,16.50
2018-10-11T01:00:26.642Z,16.50
2018-10-11T01:02:55.707Z,16.50
2018-10-11T01:05:24.643Z,16.50
2018-10-11T01:07:53.254Z,16.50
2018-10-11T01:10:21.850Z,16.50
2018-10-11T01:12:50.409Z,16.50
2018-10-11T01:15:19.010Z,16.50
2018-10-11T01:17:47.585Z,16.50
2018-10-11T01:20:16.189Z,16.40
2018-10-11T01:22:44.766Z,16.40
2018-10-11T01:25:13.522Z,16.50
2018-10-11T01:27:42.737Z,16.40
2018-10-11T01:30:11.821Z,16.40
2018-10-11T01:32:41.119Z,16.40
2018-10-11T01:35:10.413Z,16.30
2018-10-11T01:37:39.710Z,16.30
2018-10-11T01:40:08.972Z,16.30
2018-10-11T01:42:38.386Z,16.30
2018-10-11T01:45:08.503Z,16.30
2018-10-11T01:47:37.930Z,16.20
2018-10-11T01:50:07.497Z,16.20
2018-10-11T01:52:37.054Z,16.20
2018-10-11T01:55:06.776Z,16.10
2018-10-11T01:57:36.370Z,16.10
2018-10-11T02:00:06.083Z,16.00
2018-10-11T02:02:35.626Z,16.00
2018-10-11T02:05:05.230Z,15.90
2018-10-11T02:07:34.785Z,15.90
2018-10-11T02:10:04.607Z,15.80
2018-10-11T02:12:34.147Z,15.80
2018-10-11T02:15:04.071Z,15.70
2018-10-11T02:17:33.218Z,15.80
2018-10-11T02:20:02.337Z,15.70
2018-10-11T02:22:31.358Z,15.70
2018-10-11T02:25:00.354Z,15.60
2018-10-11T02:27:29.283Z,15.70
2018-10-11T02:29:57.933Z,15.60
2018-10-11T02:32:27.743Z,15.50
2018-10-11T02:34:57.677Z,15.50
2018-10-11T02:37:27.465Z,15.40
2018-10-11T02:39:56.875Z,15.50
2018-10-11T02:42:26.677Z,15.40
2018-10-11T02:44:55.756Z,15.50
2018-10-11T02:47:24.745Z,15.40
2018-10-11T02:49:53.435Z,15.40
2018-10-11T02:52:22.026Z,15.40
2018-10-11T02:54:50.679Z,15.40
2018-10-11T02:57:30.556Z,15.30
2018-10-11T02:59:59.806Z,15.30
2018-10-11T03:02:28.754Z,15.30
2018-10-11T03:04:57.531Z,15.40
2018-10-11T03:07:28.900Z,15.40
2018-10-11T03:09:58.350Z,15.40
2018-10-11T03:12:27.282Z,15.40
2018-10-11T03:14:56.455Z,15.30
2018-10-11T03:17:25.080Z,15.30
2018-10-11T03:19:53.901Z,15.30
2018-10-11T03:22:22.623Z,15.30
2018-10-11T03:24:51.261Z,15.20
2018-10-11T03:27:19.953Z,15.30
2018-10-11T03:29:48.514Z,15.20
2018-10-11T03:32:17.117Z,15.20
2018-10-11T03:34:45.989Z,15.20
2018-10-11T03:38:17.711Z,15.30
2018-10-11T03:40:46.357Z,15.30
2018-10-11T03:43:14.991Z,15.30
2018-10-11T03:45:43.568Z,15.30
2018-10-11T03:48:12.508Z,15.20
2018-10-11T03:50:41.513Z,15.20
2018-10-11T03:53:10.466Z,15.20
2018-10-11T03:55:39.650Z,15.20
2018-10-11T03:58:08.913Z,15.10
2018-10-11T04:00:38.148Z,15.10
2018-10-11T04:03:07.173Z,15.10
2018-10-11T04:05:36.197Z,15.10
2018-10-11T04:08:05.915Z,15.10
2018-10-11T04:10:34.970Z,15.10
2018-10-11T04:13:04.742Z,15.00
2018-10-11T04:15:34.404Z,15.00
2018-10-11T04:18:04.148Z,15.00
2018-10-11T04:20:33.871Z,15.00
2018-10-11T04:23:03.169Z,14.90
2018-10-11T04:25:33.424Z,14.90
2018-10-11T04:28:02.397Z,14.90
2018-10-11T04:30:31.184Z,14.90
2018-10-11T04:32:59.930Z,14.90
2018-10-11T04:35:32.057Z,14.80
2018-10-11T04:38:04.793Z,14.80
2018-10-11T04:40:34.424Z,14.80
2018-10-11T04:43:04.514Z,14.80
2018-10-11T04:45:33.775Z,14.90
2018-10-11T04:48:03.334Z,14.80
2018-10-11T04:50:41.620Z,14.80
2018-10-11T04:53:11.629Z,14.80
2018-10-11T04:55:40.728Z,14.80
2018-10-11T04:58:09.955Z,14.70
2018-10-11T05:00:39.113Z,14.70
2018-10-11T05:03:09.946Z,14.80
2018-10-11T05:05:39.222Z,14.70
2018-10-11T05:08:08.359Z,14.70
2018-10-11T05:10:37.803Z,14.80
2018-10-11T05:13:07.378Z,14.80
2018-10-11T05:15:38.177Z,14.80
2018-10-11T05:18:08.367Z,14.80
2018-10-11T05:20:37.798Z,14.80
2018-10-11T05:23:07.454Z,14.70
2018-10-11T05:25:36.888Z,14.60
2018-10-11T05:28:06.516Z,14.70
2018-10-11T05:30:38.729Z,14.70
2018-10-11T05:33:08.693Z,14.70
2018-10-11T05:35:38.137Z,14.70
2018-10-11T05:38:07.833Z,14.70
2018-10-11T05:40:37.240Z,14.70
2018-10-11T05:43:07.050Z,14.70
2018-10-11T05:45:37.252Z,14.70
2018-10-11T05:48:07.156Z,14.70
2018-10-11T05:50:36.675Z,14.60
2018-10-11T05:53:06.816Z,14.60
2018-10-11T05:55:37.199Z,14.60
2018-10-11T05:58:06.814Z,14.50
2018-10-11T06:00:36.551Z,14.50
2018-10-11T06:03:05.955Z,14.50
2018-10-11T06:05:35.454Z,14.50
2018-10-11T06:08:05.035Z,14.50
2018-10-11T06:10:37.100Z,14.50
2018-10-11T06:13:07.369Z,14.50
2018-10-11T06:15:36.803Z,14.40
2018-10-11T06:18:06.140Z,14.40
2018-10-11T06:20:35.432Z,14.30
2018-10-11T06:23:05.024Z,14.30
2018-10-11T06:25:34.686Z,14.30
2018-10-11T06:28:04.091Z,14.30
2018-10-11T06:30:35.229Z,14.30
2018-10-11T06:33:05.440Z,14.30
2018-10-11T06:35:35.478Z,14.40
2018-10-11T06:38:05.757Z,14.50
2018-10-11T06:40:36.856Z,14.50
2018-10-11T06:43:06.485Z,14.60
2018-10-11T06:45:36.352Z,14.70
2018-10-11T06:48:08.212Z,14.80
2018-10-11T06:50:37.749Z,14.90
2018-10-11T06:53:07.282Z,15.00
2018-10-11T06:55:36.310Z,15.10
2018-10-11T06:58:06.051Z,15.20
2018-10-11T07:00:36.052Z,15.20
2018-10-11T07:03:06.111Z,15.30
2018-10-11T07:05:36.444Z,15.40
2018-10-11T07:08:05.960Z,15.40
2018-10-11T07:10:35.554Z,15.50
2018-10-11T07:13:05.515Z,15.60
2018-10-11T07:15:35.805Z,15.70
2018-10-11T07:18:05.334Z,15.80
2018-10-11T07:20:35.767Z,15.90
2018-10-11T07:23:06.926Z,16.00
2018-10-11T07:25:36.490Z,16.10
2018-10-11T07:28:06.173Z,16.20
2018-10-11T07:30:35.495Z,16.30
2018-10-11T07:33:04.819Z,16.40
2018-10-11T07:35:34.270Z,16.50
2018-10-11T07:38:03.546Z,16.70
2018-10-11T07:40:33.653Z,16.70
2018-10-11T07:43:03.904Z,16.80
2018-10-11T07:45:33.985Z,16.80
2018-10-11T07:48:04.098Z,16.90
2018-10-11T07:50:33.460Z,17.00
2018-10-11T07:53:02.896Z,17.10
2018-10-11T07:55:32.169Z,17.10
2018-10-11T07:58:01.236Z,17.20
2018-10-11T08:00:29.930Z,17.30
2018-10-11T08:02:59.044Z,17.40
2018-10-11T08:05:28.038Z,17.40
2018-10-11T08:07:57.428Z,17.50
2018-10-11T08:10:26.591Z,17.50
2018-10-11T08:12:55.681Z,17.80
2018-10-11T08:15:24.719Z,17.80
2018-10-11T08:17:53.757Z,18.00
2018-10-11T08:20:22.179Z,18.10
2018-10-11T08:22:50.798Z,18.20
2018-10-11T08:25:19.632Z,18.30
2018-10-11T08:27:48.006Z,18.40
2018-10-11T08:30:16.646Z,18.60
2018-10-11T08:32:45.290Z,18.80
2018-10-11T08:35:13.935Z,18.90
2018-10-11T08:37:42.565Z,19.00
2018-10-11T08:40:11.611Z,19.00
2018-10-11T08:42:40.814Z,19.10
2018-10-11T08:45:10.281Z,19.30
2018-10-11T08:47:39.759Z,19.30
2018-10-11T08:50:09.972Z,19.60
2018-10-11T08:52:39.501Z,19.70
2018-10-11T08:55:09.960Z,20.00
2018-10-11T08:57:40.576Z,20.10
2018-10-11T09:00:10.601Z,20.20
2018-10-11T09:02:39.905Z,20.10
2018-10-11T09:05:09.312Z,20.10
2018-10-11T09:07:39.655Z,19.90
2018-10-11T09:10:09.489Z,20.20
2018-10-11T09:12:39.101Z,20.40
2018-10-11T09:15:09.241Z,20.40
2018-10-11T09:17:38.838Z,20.60
2018-10-11T09:20:08.555Z,20.50
2018-10-11T09:22:37.965Z,20.60
2018-10-11T09:25:07.627Z,20.80
2018-10-11T09:27:38.916Z,20.90
2018-10-11T09:30:09.358Z,20.90
2018-10-11T09:32:38.404Z,21.20
2018-10-11T09:35:08.010Z,21.40
2018-10-11T09:37:37.987Z,21.40
2018-10-11T09:40:08.870Z,21.50
2018-10-11T09:42:38.283Z,21.70
2018-10-11T09:45:08.540Z,21.70
2018-10-11T09:47:38.036Z,21.90
2018-10-11T09:50:08.110Z,21.90
2018-10-11T09:52:38.912Z,22.10
2018-10-11T09:55:09.197Z,22.10
2018-10-11T09:57:39.411Z,22.10
2018-10-11T10:00:15.950Z,22.20
2018-10-11T10:02:45.810Z,22.10
2018-10-11T10:05:15.631Z,22.30
2018-10-11T10:07:44.249Z,22.30
2018-10-11T10:10:12.845Z,22.60
2018-10-11T10:12:42.034Z,22.70
2018-10-11T10:15:11.457Z,22.80
2018-10-11T10:17:40.659Z,23.00
2018-10-11T10:20:09.474Z,23.10
2018-10-11T10:22:38.777Z,23.20
2018-10-11T10:25:09.332Z,23.30
2018-10-11T10:27:38.837Z,23.40
2018-10-11T10:30:13.702Z,23.60
2018-10-11T10:32:44.528Z,23.80
2018-10-11T10:35:14.708Z,23.70
2018-10-11T10:37:43.698Z,23.90
2018-10-11T10:40:12.771Z,24.00
2018-10-11T10:42:42.185Z,24.30
2018-10-11T10:45:11.636Z,24.40
2018-10-11T10:47:41.300Z,24.50
2018-10-11T10:50:10.779Z,24.80
2018-10-11T10:52:40.542Z,24.90
2018-10-11T10:55:10.859Z,25.00
2018-10-11T10:57:39.678Z,25.10
2018-10-11T11:00:09.554Z,25.20
2018-10-11T11:02:39.277Z,25.60
2018-10-11T11:05:08.767Z,25.80
2018-10-11T11:07:38.413Z,25.80
2018-10-11T11:10:08.399Z,25.80
2018-10-11T11:12:38.551Z,26.00
2018-10-11T11:15:08.037Z,25.70
2018-10-11T11:17:37.982Z,25.40
2018-10-11T11:20:07.962Z,25.20
2018-10-11T11:22:37.364Z,25.20
2018-10-11T11:25:06.823Z,25.30
2018-10-11T11:27:36.441Z,25.30
2018-10-11T11:30:06.192Z,25.60
2018-10-11T11:32:36.427Z,25.60
2018-10-11T11:35:06.369Z,25.30
2018-10-11T11:37:36.719Z,25.20
2018-10-11T11:40:07.845Z,25.40
2018-10-11T11:42:37.438Z,25.70
2018-10-11T11:45:06.845Z,25.60
2018-10-11T11:47:37.423Z,25.60
2018-10-11T11:50:07.710Z,25.40
2018-10-11T11:52:37.287Z,25.30
2018-10-11T11:55:07.134Z,25.40
2018-10-11T11:57:36.857Z,25.60
2018-10-11T12:00:06.709Z,25.80
2018-10-11T12:02:36.473Z,25.70
2018-10-11T12:05:05.735Z,25.60
2018-10-11T12:07:36.803Z,26.10
2018-10-11T12:10:07.316Z,26.50
2018-10-11T12:12:53.220Z,27.00
2018-10-11T12:15:24.431Z,27.40
2018-10-11T12:17:54.820Z,27.00
2018-10-11T12:20:25.622Z,26.70
2018-10-11T12:22:55.933Z,26.30
2018-10-11T12:25:25.400Z,26.50
2018-10-11T12:27:54.559Z,26.50
2018-10-11T12:30:23.344Z,26.50
2018-10-11T12:32:51.971Z,26.30
2018-10-11T12:35:21.942Z,25.60
2018-10-11T12:37:50.635Z,25.20
2018-10-11T12:40:19.465Z,25.10
2018-10-11T12:42:48.083Z,25.00
2018-10-11T12:45:17.554Z,24.80
2018-10-11T12:47:46.101Z,24.70
2018-10-11T12:50:15.273Z,24.50
2018-10-11T12:52:43.923Z,24.50
2018-10-11T12:55:12.567Z,24.20
2018-10-11T12:57:42.315Z,24.10
2018-10-11T13:00:13.708Z,24.10
2018-10-11T13:02:42.931Z,23.90
2018-10-11T13:05:11.902Z,23.90
2018-10-11T13:07:42.066Z,23.80
2018-10-11T13:10:11.585Z,23.50
2018-10-11T13:12:41.350Z,23.40
2018-10-11T13:15:10.764Z,23.20
2018-10-11T13:17:43.385Z,23.00
2018-10-11T13:20:09.558Z,22.90
2018-10-11T13:22:40.245Z,22.80
2018-10-11T13:25:09.784Z,22.80
2018-10-11T13:27:39.606Z,22.80
2018-10-11T13:30:09.727Z,22.80
2018-10-11T13:32:40.903Z,22.70
2018-10-11T13:35:10.711Z,22.80
2018-10-11T13:37:40.174Z,22.70
2018-10-11T13:40:09.503Z,22.50
2018-10-11T13:42:39.189Z,22.50
2018-10-11T13:45:08.918Z,22.40
2018-10-11T13:47:43.707Z,22.30
2018-10-11T13:50:09.340Z,22.20
2018-10-11T13:52:38.316Z,22.20
2018-10-11T13:55:13.055Z,22.10
2018-10-11T13:57:39.422Z,22.20
2018-10-11T14:00:11.151Z,22.10
2018-10-11T14:02:40.541Z,22.10
2018-10-11T14:05:10.063Z,22.00
2018-10-11T14:07:39.609Z,21.90
2018-10-11T14:10:08.797Z,21.90
2018-10-11T14:12:38.530Z,21.90
2018-10-11T14:15:18.844Z,21.80
2018-10-11T14:17:47.584Z,21.80
2018-10-11T14:20:16.097Z,21.70
2018-10-11T14:22:44.733Z,21.70
2018-10-11T14:25:13.438Z,21.70
2018-10-11T14:27:42.990Z,21.70
2018-10-11T14:30:12.014Z,21.60
2018-10-11T14:32:41.131Z,21.60
2018-10-11T14:35:10.621Z,21.60
2018-10-11T14:37:39.810Z,21.70
2018-10-11T14:40:09.214Z,21.70
2018-10-11T14:42:38.393Z,21.70
2018-10-11T14:45:08.865Z,21.70
2018-10-11T14:47:38.035Z,21.70
2018-10-11T14:50:08.086Z,21.80
2018-10-11T14:52:37.904Z,21.90
2018-10-11T14:55:07.434Z,22.10
2018-10-11T14:57:37.791Z,22.20
2018-10-11T15:00:08.702Z,22.50
2018-10-11T15:02:38.521Z,22.60
2018-10-11T15:05:09.061Z,22.70
2018-10-11T15:07:38.384Z,22.60
2018-10-11T15:10:07.911Z,22.40
2018-10-11T15:12:37.646Z,22.30
2018-10-11T15:15:07.397Z,22.00
2018-10-11T15:17:37.515Z,21.80
2018-10-11T15:20:06.864Z,21.80
2018-10-11T15:22:36.978Z,21.70
2018-10-11T15:25:07.350Z,21.50
2018-10-11T15:27:38.395Z,21.40
2018-10-11T15:30:07.952Z,21.30
2018-10-11T15:32:38.398Z,21.30
2018-10-11T15:35:08.750Z,21.20
2018-10-11T15:37:38.289Z,21.20
2018-10-11T15:40:09.675Z,21.20
2018-10-11T15:42:40.472Z,21.10
2018-10-11T15:45:10.510Z,21.10
2018-10-11T15:47:40.389Z,21.10
2018-10-11T15:50:10.253Z,21.10
2018-10-11T15:52:40.609Z,21.20
2018-10-11T15:55:10.118Z,21.30
2018-10-11T15:57:40.504Z,21.40
2018-10-11T16:00:09.697Z,21.40
2018-10-11T16:02:38.958Z,21.50
2018-10-11T16:05:08.742Z,21.40
2018-10-11T16:07:38.179Z,21.40
2018-10-11T16:10:08.366Z,21.40
2018-10-11T16:12:37.863Z,21.40
2018-10-11T16:15:07.934Z,21.30
2018-10-11T16:17:38.623Z,21.30
2018-10-11T16:20:08.328Z,21.10
2018-10-11T16:22:38.116Z,21.20
2018-10-11T16:25:09.323Z,21.10
2018-10-11T16:27:39.121Z,21.00
2018-10-11T16:30:08.945Z,20.90
2018-10-11T16:32:39.522Z,20.90
2018-10-11T16:35:10.367Z,20.80
2018-10-11T16:37:40.353Z,20.70
2018-10-11T16:40:09.634Z,20.60
2018-10-11T16:42:39.202Z,20.50
2018-10-11T16:45:09.247Z,20.40
2018-10-11T16:47:40.202Z,20.40
2018-10-11T16:50:09.359Z,20.40
2018-10-11T16:52:38.885Z,20.30
2018-10-11T16:55:09.202Z,20.30
2018-10-11T16:57:42.576Z,20.20
2018-10-11T17:00:11.792Z,20.20
2018-10-11T17:02:41.203Z,20.20
2018-10-11T17:05:11.282Z,20.10
2018-10-11T17:07:40.739Z,20.00
2018-10-11T17:10:10.978Z,19.90
2018-10-11T17:12:40.302Z,19.90
2018-10-11T17:15:09.508Z,19.80
2018-10-11T17:17:39.493Z,19.60
2018-10-11T17:20:08.755Z,19.60
2018-10-11T17:22:39.732Z,19.60
2018-10-11T17:25:09.149Z,19.50
2018-10-11T17:27:38.468Z,19.40
2018-10-11T17:30:09.269Z,19.40
2018-10-11T17:32:38.686Z,19.40
2018-10-11T17:35:08.022Z,19.40
2018-10-11T17:37:37.339Z,19.20
2018-10-11T17:40:06.967Z,19.10
2018-10-11T17:42:36.967Z,19.10
2018-10-11T17:45:07.734Z,19.10
2018-10-11T17:47:37.817Z,19.10
2018-10-11T17:50:07.328Z,19.10
2018-10-11T17:52:37.812Z,19.10
2018-10-11T17:55:08.009Z,19.10
2018-10-11T17:57:37.735Z,19.00
2018-10-11T18:00:07.533Z,19.00
2018-10-11T18:02:37.186Z,18.90
2018-10-11T18:05:08.343Z,18.90
2018-10-11T18:07:38.378Z,18.80
2018-10-11T18:10:08.287Z,18.80
2018-10-11T18:12:53.332Z,18.80
2018-10-11T18:15:22.486Z,18.70
2018-10-11T18:17:51.113Z,18.70
2018-10-11T18:20:19.677Z,18.70
2018-10-11T18:22:48.257Z,18.70
2018-10-11T18:25:16.839Z,18.60
2018-10-11T18:27:45.447Z,18.60
2018-10-11T18:30:14.072Z,18.60
2018-10-11T18:32:43.374Z,18.60
2018-10-11T18:35:12.356Z,18.60
2018-10-11T18:37:43.063Z,18.60
2018-10-11T18:40:12.319Z,18.50
2018-10-11T18:42:42.607Z,18.60
2018-10-11T18:45:12.689Z,18.50
2018-10-11T18:47:41.658Z,18.50
2018-10-11T18:50:11.169Z,18.50
2018-10-11T18:52:41.270Z,18.40
2018-10-11T18:55:10.461Z,18.40
2018-10-11T18:57:40.371Z,18.30
2018-10-11T19:00:10.581Z,18.30
2018-10-11T19:02:39.874Z,18.30
2018-10-11T19:05:09.974Z,18.30
2018-10-11T19:07:44.459Z,18.30
2018-10-11T19:10:13.853Z,18.20
2018-10-11T19:12:43.363Z,18.20
2018-10-11T19:15:13.621Z,18.20
2018-10-11T19:17:42.903Z,18.20
2018-10-11T19:20:12.124Z,18.10
2018-10-11T19:22:41.311Z,18.20
2018-10-11T19:25:11.343Z,18.10
2018-10-11T19:27:41.504Z,18.10
2018-10-11T19:30:11.503Z,18.00
2018-10-11T19:32:41.638Z,18.00
2018-10-11T19:35:11.076Z,18.00
2018-10-11T19:37:40.750Z,18.00
2018-10-11T19:40:10.822Z,18.00
2018-10-11T19:42:40.976Z,17.90
2018-10-11T19:45:12.535Z,17.90
2018-10-11T19:47:42.648Z,17.90
2018-10-11T19:50:12.773Z,17.90
2018-10-11T19:52:41.875Z,17.90
2018-10-11T19:55:10.906Z,18.00
2018-10-11T19:57:40.467Z,18.00
2018-10-11T20:00:10.784Z,18.00
2018-10-11T20:02:40.498Z,18.00
2018-10-11T20:05:09.543Z,18.00
2018-10-11T20:07:38.881Z,18.00
2018-10-11T20:10:08.123Z,18.00
2018-10-11T20:12:37.281Z,18.00
2018-10-11T20:15:06.915Z,18.00
2018-10-11T20:17:36.455Z,18.00
2018-10-11T20:20:06.463Z,17.90
2018-10-11T20:22:36.166Z,17.90
2018-10-11T20:25:06.039Z,17.90
2018-10-11T20:27:35.774Z,17.90
2018-10-11T20:30:07.085Z,17.90
2018-10-11T20:32:38.455Z,17.90
2018-10-11T20:35:09.956Z,17.90
2018-10-11T20:37:39.815Z,17.90
2018-10-11T20:40:09.409Z,17.90
2018-10-11T20:42:39.627Z,17.90
2018-10-11T20:45:09.194Z,17.80
2018-10-11T20:47:38.892Z,17.80
2018-10-11T20:50:09.746Z,17.80
2018-10-11T20:52:39.083Z,17.70
2018-10-11T20:55:08.878Z,17.70
2018-10-11T20:57:38.762Z,17.70
2018-10-11T21:00:08.768Z,17.80
2018-10-11T21:02:38.673Z,17.70
2018-10-11T21:05:09.196Z,17.70
2018-10-11T21:07:40.291Z,17.70
2018-10-11T21:10:09.716Z,17.70
2018-10-11T21:12:39.776Z,17.70
2018-10-11T21:15:09.269Z,17.80
2018-10-11T21:17:38.566Z,17.80
2018-10-11T21:20:10.010Z,17.80
2018-10-11T21:22:39.464Z,17.80
2018-10-11T21:25:08.732Z,17.70
2018-10-11T21:27:38.399Z,17.60
2018-10-11T21:30:08.145Z,17.60
2018-10-11T21:32:37.738Z,17.60
2018-10-11T21:35:09.287Z,17.60
2018-10-11T21:37:39.760Z,17.60
2018-10-11T21:40:08.899Z,17.60
2018-10-11T21:42:38.976Z,17.60
2018-10-11T21:45:09.304Z,17.60
2018-10-11T21:47:39.899Z,17.60
2018-10-11T21:50:09.426Z,17.60
2018-10-11T21:52:38.985Z,17.60
2018-10-11T21:55:09.317Z,17.60
2018-10-11T21:57:38.692Z,17.60
2018-10-11T22:00:08.241Z,17.60
2018-10-11T22:02:38.022Z,17.60
2018-10-11T22:05:07.502Z,17.60
2018-10-11T22:07:37.464Z,17.50
2018-10-11T22:10:07.649Z,17.60
2018-10-11T22:12:37.959Z,17.50
2018-10-11T22:15:08.474Z,17.60
2018-10-11T22:17:37.460Z,17.60
2018-10-11T22:20:07.412Z,17.60
2018-10-11T22:22:37.118Z,17.50
2018-10-11T22:25:06.600Z,17.60
2018-10-11T22:27:36.000Z,17.50
2018-10-11T22:30:06.106Z,17.50
2018-10-11T22:32:35.944Z,17.50
2018-10-11T22:35:05.254Z,17.50
2018-10-11T22:37:35.434Z,17.50
2018-10-11T22:40:05.669Z,17.40
2018-10-11T22:42:35.957Z,17.50
2018-10-11T22:45:05.635Z,17.50
2018-10-11T22:47:34.943Z,17.50
2018-10-11T22:50:04.234Z,17.40
2018-10-11T22:52:33.452Z,17.40
2018-10-11T22:55:05.890Z,17.40
2018-10-11T22:57:37.443Z,17.30
2018-10-11T23:00:06.677Z,17.30
2018-10-11T23:02:36.890Z,17.30
2018-10-11T23:05:06.706Z,17.40
2018-10-11T23:07:36.479Z,17.50
2018-10-11T23:10:08.105Z,17.50
2018-10-11T23:12:37.849Z,17.50
2018-10-11T23:15:07.206Z,17.50
2018-10-11T23:17:37.364Z,17.50
2018-10-11T23:20:07.582Z,17.50
2018-10-11T23:22:39.039Z,17.50
2018-10-11T23:25:10.617Z,17.50
2018-10-11T23:27:45.855Z,17.50
2018-10-11T23:30:14.995Z,17.50
2018-10-11T23:32:43.658Z,17.60
2018-10-11T23:35:12.647Z,17.60
2018-10-11T23:37:41.518Z,17.60
2018-10-11T23:40:11.654Z,17.50
2018-10-11T23:42:41.794Z,17.50
2018-10-11T23:45:12.269Z,17.50
2018-10-11T23:47:41.854Z,17.40
2018-10-11T23:50:11.041Z,17.50
2018-10-11T23:52:40.326Z,17.50
2018-10-11T23:55:09.884Z,17.50
2018-10-11T23:57:39.818Z,17.50
